| Date | Time | Temp. (oF) | Dew Point (oF) | Rel. Hum. (%) | Press. (in.) | Wind Dir. | Wind Speed (mph) | Hourly Rainfall (in.) |
|
|---|---|---|---|---|---|---|---|---|---|
| 1 | 09/12 | 00:00 | 64 | 58 | 83 | 30.25 | E | 3 | 0.00 |
| 2 | 09/11 | 23:00 | 65 | 59 | 82 | 30.25 | NE | 3 | 0.00 |
| 3 | 09/11 | 22:00 | 67 | 59 | 77 | 30.23 | NE | 1 | 0.00 |
| 4 | 09/11 | 21:00 | 69 | 59 | 73 | 30.22 | NE | 5 | 0.00 |
| 5 | 09/11 | 20:00 | 72 | 60 | 67 | 30.21 | E | 2 | 0.00 |
| 6 | 09/11 | 19:00 | 75 | 61 | 62 | 30.20 | ENE | 4 | 0.00 |
| 7 | 09/11 | 18:00 | 78 | 62 | 59 | 30.20 | NNE | 4 | 0.00 |
| 8 | 09/11 | 17:00 | 80 | 63 | 57 | 30.20 | NE | 6 | 0.00 |
| 9 | 09/11 | 16:00 | 80 | 62 | 55 | 30.20 | ENE | 5 | 0.00 |
| 10 | 09/11 | 15:00 | 79 | 61 | 55 | 30.22 | E | 4 | 0.00 |
| 11 | 09/11 | 14:00 | 79 | 62 | 58 | 30.23 | SE | 6 | 0.00 |
| 12 | 09/11 | 13:00 | 78 | 62 | 60 | 30.26 | NE | 11 | 0.00 |
| 13 | 09/11 | 12:00 | 76 | 61 | 60 | 30.27 | ESE | 7 | 0.00 |
| 14 | 09/11 | 11:00 | 73 | 61 | 67 | 30.27 | ESE | 2 | 0.00 |
| 15 | 09/11 | 10:00 | 68 | 61 | 81 | 30.26 | E | 3 | 0.00 |
| 16 | 09/11 | 09:00 | 60 | 59 | 100 | 30.26 | S | 1 | 0.00 |
| 17 | 09/11 | 08:00 | 55 | 54 | 100 | 30.24 | S | 1 | 0.00 |
| 18 | 09/11 | 07:00 | 53 | 53 | 100 | 30.24 | NW | 0 | 0.00 |
| 19 | 09/11 | 06:00 | 54 | 54 | 100 | 30.23 | NW | 0 | 0.00 |
| 20 | 09/11 | 05:00 | 55 | 54 | 100 | 30.22 | NW | 0 | 0.00 |
| 21 | 09/11 | 04:00 | 55 | 54 | 99 | 30.22 | WSW | 0 | 0.00 |
| 22 | 09/11 | 03:00 | 56 | 55 | 98 | 30.22 | WSW | 0 | 0.00 |
| 23 | 09/11 | 02:00 | 57 | 56 | 97 | 30.23 | WSW | 0 | 0.00 |
| 24 | 09/11 | 01:00 | 58 | 56 | 96 | 30.23 | WSW | 0 | 0.00 |